Metar z pełnej godziny Komunikat METAR ze strony awiacja.imgw.pl Metar G00 EPKK METAR EPKK 230400Z VRB02KT 9999 -RA FEW038 BKN063 07/05 Q0997 =